Time;durP1;ratioP1;P1;durP2;ratioP2;P2;SDS_P1;SDS_P2;PMS_P1;PMS_P2;Temp;Humidity;BMP_temperature;BMP_pressure;BME280_temperature;BME280_humidity;BME280_pressure;Samples;Min_cycle;Max_cycle;Signal;HPM_P1;HPM_P2
2022/08/15 00:00:27;;;;;;;7.00;6.30;;;;;;;20.21;76.00;98361.44;104688;1274;76742;-18
2022/08/15 00:02:57;;;;;;;8.10;5.50;;;;;;;20.23;75.98;98365.67;104645;1271;75868;-18
2022/08/15 00:05:31;;;;;;;9.30;6.70;;;;;;;19.99;76.71;98365.63;104912;1271;62527;-18
2022/08/15 00:08:05;;;;;;;8.20;5.50;;;;;;;19.76;78.22;98365.76;104676;1271;63079;-18
2022/08/15 00:10:54;;;;;;;9.80;6.50;;;;;;;20.20;76.57;98364.78;104637;1271;75566;-18
2022/08/15 00:13:30;;;;;;;12.30;6.80;;;;;;;20.19;76.54;98366.16;104681;1271;75862;-18
2022/08/15 00:16:08;;;;;;;8.90;6.60;;;;;;;20.16;76.46;98372.35;104810;1271;73310;-18
2022/08/15 00:18:36;;;;;;;9.50;5.90;;;;;;;19.89;77.83;98372.93;104803;1271;61774;-18
2022/08/15 00:21:03;;;;;;;13.20;6.80;;;;;;;19.64;78.78;98371.84;104755;1274;63053;-18
2022/08/15 00:23:36;;;;;;;10.30;5.70;;;;;;;19.64;78.81;98370.33;104813;1271;76750;-18
2022/08/15 00:26:03;;;;;;;11.40;6.00;;;;;;;20.16;77.07;98372.54;104794;1272;76803;-18
2022/08/15 00:28:50;;;;;;;10.00;6.80;;;;;;;20.56;74.93;98369.94;104983;1271;74369;-18
2022/08/15 00:31:22;;;;;;;10.20;6.90;;;;;;;20.24;76.19;98373.40;104977;1271;61164;-18
2022/08/15 00:34:12;;;;;;;9.90;6.40;;;;;;;19.78;78.41;98370.11;104811;1271;63321;-18
2022/08/15 00:37:00;;;;;;;7.20;5.60;;;;;;;19.47;79.85;98370.79;104712;1271;75927;-18
2022/08/15 00:39:32;;;;;;;5.90;4.20;;;;;;;19.31;80.81;98373.23;104722;1274;76936;-18
2022/08/15 00:42:04;;;;;;;7.20;5.30;;;;;;;19.61;79.64;98367.07;104763;1272;74235;-18
2022/08/15 00:44:40;;;;;;;8.30;5.40;;;;;;;19.54;79.77;98362.42;104696;1271;61983;-18
2022/08/15 00:47:27;;;;;;;6.60;5.90;;;;;;;19.40;80.49;98362.69;104624;1272;61708;-18
2022/08/15 00:49:57;;;;;;;7.50;5.30;;;;;;;19.20;81.50;98361.20;104778;1271;76595;-18
2022/08/15 00:52:30;;;;;;;6.50;4.60;;;;;;;19.13;82.14;98362.11;105072;1272;75973;-18
2022/08/15 00:55:12;;;;;;;6.30;5.40;;;;;;;19.48;80.67;98358.96;104789;1271;74766;-18
2022/08/15 00:57:44;;;;;;;10.70;5.10;;;;;;;19.59;79.93;98357.25;105049;1271;63067;-18
2022/08/15 01:00:31;;;;;;;7.40;5.70;;;;;;;19.79;79.09;98354.46;104903;1271;61966;-18
2022/08/15 01:03:07;;;;;;;8.60;5.80;;;;;;;19.60;79.55;98353.99;104658;1274;76912;-18
2022/08/15 01:05:51;;;;;;;9.10;5.30;;;;;;;19.41;80.85;98354.20;104617;1271;77137;-19
2022/08/15 01:08:19;;;;;;;9.20;5.90;;;;;;;19.80;79.75;98355.94;104694;1272;74922;-18
2022/08/15 01:10:56;;;;;;;10.20;6.60;;;;;;;20.14;77.81;98354.14;104831;1271;63054;-18
2022/08/15 01:13:31;;;;;;;9.00;6.40;;;;;;;20.05;78.13;98354.79;104722;1271;61852;-18
2022/08/15 01:16:18;;;;;;;11.40;6.90;;;;;;;19.81;79.06;98353.29;104789;1272;76561;-18
2022/08/15 01:19:24;;;;;;;6.70;5.00;;;;;;;19.68;79.72;98355.71;104870;1271;76023;-18
2022/08/15 01:22:13;;;;;;;8.80;6.10;;;;;;;20.07;78.54;98355.92;104760;1271;75384;-18
2022/08/15 01:24:41;;;;;;;10.60;6.60;;;;;;;20.24;77.54;98353.02;104680;1274;61743;-18
2022/08/15 01:27:35;;;;;;;9.80;7.20;;;;;;;19.90;78.68;98354.61;104632;1271;63289;-18
2022/08/15 01:30:08;;;;;;;10.60;8.00;;;;;;;19.71;79.67;98356.57;104728;1271;77098;-18
2022/08/15 01:32:55;;;;;;;8.80;6.20;;;;;;;19.64;80.09;98358.35;104664;1271;77116;-18
2022/08/15 01:35:25;;;;;;;10.00;6.80;;;;;;;20.01;78.73;98355.16;104741;1271;74767;-18
2022/08/15 01:37:53;;;;;;;7.90;6.60;;;;;;;20.00;78.40;98356.85;104730;1271;61944;-18
2022/08/15 01:40:39;;;;;;;8.70;6.10;;;;;;;19.93;78.81;98354.20;104795;1271;62822;-18
2022/08/15 01:43:24;;;;;;;12.90;6.10;;;;;;;19.65;80.00;98360.52;104630;1270;76687;-18
2022/08/15 01:45:51;;;;;;;7.90;4.90;;;;;;;19.38;81.06;98358.66;104682;1271;76030;-18
2022/08/15 01:48:23;;;;;;;8.00;5.00;;;;;;;19.30;82.09;98356.93;104722;1271;75480;-18
2022/08/15 01:50:55;;;;;;;12.70;6.20;;;;;;;19.33;82.00;98351.81;104643;1271;63080;-18
2022/08/15 01:53:39;;;;;;;7.60;6.80;;;;;;;19.16;82.90;98349.94;105081;1271;61199;-18
2022/08/15 01:56:32;;;;;;;7.80;7.00;;;;;;;18.97;83.93;98347.10;104775;1271;76935;-18
2022/08/15 01:59:08;;;;;;;5.70;4.90;;;;;;;18.94;84.24;98348.06;104867;1271;74682;-18
2022/08/15 02:01:49;;;;;;;6.50;5.90;;;;;;;19.38;82.06;98340.09;104559;1271;75545;-18
2022/08/15 02:04:28;;;;;;;8.20;6.50;;;;;;;19.41;81.51;98338.23;104650;1274;63559;-18
2022/08/15 02:06:56;;;;;;;;;;;;;;;19.17;82.76;98336.40;104843;1271;62212;-18
2022/08/15 02:09:26;;;;;;;9.40;5.50;;;;;;;18.88;84.17;98337.73;105048;1271;75165;-18
2022/08/15 02:12:15;;;;;;;8.50;5.60;;;;;;;18.89;84.42;98338.95;105068;1271;76023;-18
2022/08/15 02:15:06;;;;;;;9.70;6.20;;;;;;;19.18;83.14;98340.17;104547;1272;74351;-18
2022/08/15 02:17:35;;;;;;;9.00;6.30;;;;;;;19.28;82.32;98344.88;104775;1272;63103;-18
2022/08/15 02:20:04;;;;;;;7.10;5.50;;;;;;;19.14;83.13;98352.13;105041;1271;62923;-18
2022/08/15 02:22:55;;;;;;;6.60;5.00;;;;;;;18.98;84.02;98353.45;104627;1272;76608;-18
2022/08/15 02:25:23;;;;;;;6.20;5.60;;;;;;;19.35;82.43;98350.45;104661;1271;77015;-18
2022/08/15 02:27:53;;;;;;;6.20;5.60;;;;;;;19.64;80.77;98349.65;104796;1272;75431;-18
2022/08/15 02:30:22;;;;;;;8.40;6.70;;;;;;;19.59;80.64;98346.31;104664;1271;63050;-18
2022/08/15 02:33:01;;;;;;;8.50;6.60;;;;;;;18.99;83.65;98344.27;104649;1271;61982;-18
2022/08/15 02:35:28;;;;;;;7.60;5.30;;;;;;;18.92;84.22;98343.19;104653;1271;76575;-18
2022/08/15 02:37:58;;;;;;;7.10;5.40;;;;;;;19.36;82.71;98343.75;104834;1271;77442;-18
2022/08/15 02:40:27;;;;;;;7.50;6.40;;;;;;;19.47;81.48;98340.67;104669;1271;75398;-18
2022/08/15 02:43:13;;;;;;;11.10;7.70;;;;;;;19.21;82.99;98345.45;104734;1271;63127;-18
2022/08/15 02:45:47;;;;;;;11.40;7.30;;;;;;;19.14;83.40;98342.14;104793;1271;63065;-18
2022/08/15 02:48:36;;;;;;;10.20;6.10;;;;;;;19.01;83.99;98350.55;104943;1271;76711;-18
2022/08/15 02:51:08;;;;;;;7.70;6.80;;;;;;;19.41;82.25;98350.35;104675;1269;76859;-18
2022/08/15 02:53:47;;;;;;;10.50;8.60;;;;;;;19.83;80.35;98347.27;104626;1271;75713;-18
2022/08/15 02:56:20;;;;;;;12.60;8.60;;;;;;;19.47;81.36;98343.81;104771;1272;62829;-18
2022/08/15 02:58:48;;;;;;;14.10;9.70;;;;;;;19.17;82.77;98341.42;104815;1274;61983;-18
2022/08/15 03:01:16;;;;;;;9.40;7.20;;;;;;;19.03;83.39;98343.23;104799;1272;75954;-18
2022/08/15 03:03:51;;;;;;;17.50;10.30;;;;;;;19.27;82.72;98336.14;104778;1271;76904;-18
2022/08/15 03:06:25;;;;;;;;;;;;;;;19.39;81.82;98333.16;103794;1271;71968;-18
2022/08/15 03:09:00;;;;;;;44.20;37.60;;;;;;;19.14;83.23;98333.45;104786;1271;61784;-18
2022/08/15 03:11:29;;;;;;;20.70;16.70;;;;;;;18.90;84.63;98335.19;104680;1271;63113;-18
2022/08/15 03:14:19;;;;;;;23.90;14.90;;;;;;;19.08;83.49;98344.06;104696;1272;76700;-18
2022/08/15 03:17:02;;;;;;;17.30;9.50;;;;;;;19.61;81.34;98343.48;104769;1271;77085;-18
2022/08/15 03:19:34;;;;;;;18.40;16.10;;;;;;;19.67;80.66;98341.81;104702;1271;75347;-18
2022/08/15 03:22:08;;;;;;;29.60;21.40;;;;;;;19.51;81.36;98344.75;104803;1271;62601;-18
2022/08/15 03:24:37;;;;;;;41.40;28.70;;;;;;;19.26;82.64;98344.83;104831;1272;61131;-18
2022/08/15 03:27:07;;;;;;;37.50;24.90;;;;;;;19.13;83.29;98344.09;104717;1271;76335;-18
2022/08/15 03:29:36;;;;;;;16.90;12.60;;;;;;;19.24;82.80;98341.32;104860;1271;75278;-18
2022/08/15 03:32:20;;;;;;;39.00;22.40;;;;;;;19.49;81.65;98336.47;104714;1274;75244;-18
2022/08/15 03:35:02;;;;;;;24.80;17.00;;;;;;;19.72;80.87;98336.79;104679;1271;62025;-18
2022/08/15 03:37:29;;;;;;;18.40;12.70;;;;;;;19.65;80.67;98336.05;104636;1271;62127;-18
2022/08/15 03:40:10;;;;;;;15.90;12.10;;;;;;;19.30;82.18;98334.39;104908;1271;74908;-18
2022/08/15 03:42:38;;;;;;;10.40;7.20;;;;;;;19.33;82.83;98334.56;104685;1271;76089;-18
2022/08/15 03:45:09;;;;;;;14.40;10.30;;;;;;;19.86;80.50;98337.54;104749;1271;75521;-18
2022/08/15 03:47:39;;;;;;;13.30;9.00;;;;;;;20.23;78.33;98341.81;104671;1271;63072;-18
2022/08/15 03:50:08;;;;;;;14.80;9.20;;;;;;;20.13;78.72;98340.92;105068;1271;61999;-18
2022/08/15 03:52:59;;;;;;;8.20;7.40;;;;;;;20.04;78.98;98341.90;104788;1272;76543;-18
2022/08/15 03:55:30;;;;;;;7.80;6.20;;;;;;;20.11;78.44;98342.95;104740;1272;77364;-18
2022/08/15 03:57:59;;;;;;;10.70;6.40;;;;;;;20.63;77.14;98340.30;104635;1272;75141;-18
2022/08/15 04:00:36;;;;;;;7.90;6.80;;;;;;;20.97;75.42;98345.91;104768;1271;61984;-18
2022/08/15 04:03:10;;;;;;;13.80;6.70;;;;;;;20.86;75.51;98347.21;104729;1271;62940;-19
2022/08/15 04:05:39;;;;;;;6.40;5.80;;;;;;;20.87;75.37;98352.17;104721;1271;76626;-18
2022/08/15 04:08:10;;;;;;;7.90;6.40;;;;;;;20.85;75.27;98353.40;104655;1271;77264;-18
2022/08/15 04:10:58;;;;;;;4.00;3.70;;;;;;;20.78;75.82;98352.72;104735;1271;75571;-18
2022/08/15 04:13:25;;;;;;;6.30;5.10;;;;;;;21.27;74.35;98354.06;104756;1272;62097;-18
2022/08/15 04:15:55;;;;;;;7.40;5.10;;;;;;;21.78;73.09;98354.61;104821;1271;61235;-18
2022/08/15 04:18:43;;;;;;;7.80;6.10;;;;;;;21.86;71.81;98348.45;104761;1271;76631;-18
2022/08/15 04:21:11;;;;;;;8.90;6.40;;;;;;;21.61;72.41;98347.83;104842;1271;77137;-18
2022/08/15 04:23:43;;;;;;;8.30;6.40;;;;;;;21.42;73.04;98347.16;104764;1271;73481;-19
2022/08/15 04:26:11;;;;;;;8.50;6.10;;;;;;;21.19;73.94;98343.61;104440;1271;61749;-18
2022/08/15 04:28:47;;;;;;;8.70;7.00;;;;;;;21.13;74.44;98340.39;104728;1271;61789;-18
2022/08/15 04:31:21;;;;;;;11.40;6.00;;;;;;;21.82;72.61;98338.88;104877;1271;76576;-18
2022/08/15 04:33:48;;;;;;;9.20;6.20;;;;;;;22.19;70.84;98335.19;104744;1271;77011;-18
2022/08/15 04:36:36;;;;;;;7.00;6.20;;;;;;;21.94;71.01;98337.48;104701;1271;74126;-18
2022/08/15 04:39:05;;;;;;;9.20;6.70;;;;;;;21.92;71.78;98333.02;104849;1271;62779;-18
2022/08/15 04:42:02;;;;;;;10.70;6.80;;;;;;;21.74;72.14;98333.89;104845;1271;63208;-18
2022/08/15 04:44:30;;;;;;;7.10;5.40;;;;;;;21.59;72.55;98340.34;104762;1271;76608;-19
2022/08/15 04:46:58;;;;;;;6.30;5.50;;;;;;;21.69;72.49;98336.80;104872;1271;76949;-18
2022/08/15 04:49:26;;;;;;;12.20;6.30;;;;;;;21.47;73.35;98335.06;104776;1271;75250;-18
2022/08/15 04:51:53;;;;;;;10.20;7.10;;;;;;;21.92;72.02;98334.16;104886;1271;63331;-18
2022/08/15 04:54:22;;;;;;;8.70;6.20;;;;;;;21.84;71.94;98332.05;104771;1271;62950;-18
2022/08/15 04:57:08;;;;;;;9.70;7.20;;;;;;;21.62;72.88;98328.01;104716;1271;76528;-18
2022/08/15 04:59:43;;;;;;;9.90;6.70;;;;;;;21.59;72.57;98328.67;104697;1271;75663;-18
2022/08/15 05:02:30;;;;;;;6.80;5.00;;;;;;;21.81;72.73;98320.20;104726;1271;75561;-18
2022/08/15 05:05:17;;;;;;;7.40;5.70;;;;;;;22.58;70.43;98316.38;105042;1271;62159;-20
2022/08/15 05:07:45;;;;;;;9.40;6.20;;;;;;;23.06;68.39;98324.92;104798;1271;61964;-18
2022/08/15 05:10:28;;;;;;;8.10;6.60;;;;;;;23.07;67.63;98325.91;104732;1272;76751;-18
2022/08/15 05:13:12;;;;;;;8.40;6.40;;;;;;;22.94;67.94;98319.63;104745;1271;75984;-18
2022/08/15 05:15:40;;;;;;;6.60;5.90;;;;;;;22.75;68.43;98323.93;104756;1271;74563;-18
2022/08/15 05:18:22;;;;;;;9.50;7.40;;;;;;;22.35;69.21;98332.02;104699;1271;63117;-18
2022/08/15 05:20:50;;;;;;;7.90;7.10;;;;;;;21.47;72.76;98343.82;104678;1271;63042;-18
2022/08/15 05:23:19;;;;;;;7.50;4.40;;;;;;;21.64;72.50;98341.42;104681;1271;76657;-18
2022/08/15 05:26:08;;;;;;;8.70;5.90;;;;;;;22.11;71.18;98329.59;104700;1271;75791;-18
2022/08/15 05:28:55;;;;;;;7.20;5.90;;;;;;;22.38;69.99;98327.70;104772;1271;75804;-18
2022/08/15 05:31:26;;;;;;;7.70;6.80;;;;;;;22.26;70.09;98326.88;104794;1271;63148;-18
2022/08/15 05:34:00;;;;;;;7.60;6.80;;;;;;;21.74;71.79;98333.43;104739;1271;63045;-18
2022/08/15 05:36:33;;;;;;;8.10;6.50;;;;;;;21.52;72.48;98335.37;104843;1271;74939;-18
2022/08/15 05:39:21;;;;;;;15.00;7.50;;;;;;;21.07;74.30;98335.98;104819;1271;77353;-18
2022/08/15 05:42:01;;;;;;;7.90;5.30;;;;;;;20.99;74.80;98331.37;104792;1271;75537;-18
2022/08/15 05:44:52;;;;;;;8.70;7.20;;;;;;;21.44;73.70;98331.54;104777;1271;63140;-18
2022/08/15 05:47:34;;;;;;;9.10;6.90;;;;;;;21.85;72.46;98327.49;104809;1272;63173;-18
2022/08/15 05:50:04;;;;;;;19.00;14.70;;;;;;;21.72;72.45;98323.70;104612;1274;75580;-18
2022/08/15 05:53:09;;;;;;;14.60;11.50;;;;;;;21.11;74.79;98324.84;104793;1271;76735;-18
2022/08/15 05:55:51;;;;;;;21.90;11.80;;;;;;;20.74;76.42;98325.34;104386;1271;75478;-18
2022/08/15 05:58:41;;;;;;;9.50;6.80;;;;;;;20.67;76.92;98327.52;104546;1271;64550;-18
2022/08/15 06:01:19;;;;;;;8.20;7.30;;;;;;;20.98;75.41;98326.45;104595;1272;61875;-18
2022/08/15 06:04:21;;;;;;;13.30;8.20;;;;;;;20.95;75.34;98324.95;104542;1271;76674;-18
2022/08/15 06:06:59;;;;;;;11.00;9.40;;;;;;;20.73;76.53;98322.33;104604;1274;77152;-18
2022/08/15 06:09:38;;;;;;;14.60;8.60;;;;;;;20.49;77.74;98324.67;104669;1271;75523;-18
2022/08/15 06:12:25;;;;;;;8.70;7.30;;;;;;;20.65;77.18;98324.11;104642;1271;64669;-18
2022/08/15 06:15:26;;;;;;;9.70;7.20;;;;;;;20.71;77.04;98322.55;104730;1271;61530;-18
2022/08/15 06:18:01;;;;;;;10.50;7.60;;;;;;;21.03;75.72;98322.91;104797;1271;76573;-18
2022/08/15 06:20:57;;;;;;;14.80;11.50;;;;;;;20.67;77.68;98320.48;104738;1271;77422;-18
2022/08/15 06:23:34;;;;;;;12.00;8.20;;;;;;;20.72;77.61;98318.08;104782;1271;75484;-18
2022/08/15 06:26:14;;;;;;;9.30;7.40;;;;;;;21.00;76.78;98316.55;104671;1271;62113;-18
2022/08/15 06:29:11;;;;;;;17.10;11.00;;;;;;;21.46;75.17;98315.21;104855;1271;62099;-18
2022/08/15 06:31:41;;;;;;;11.20;8.70;;;;;;;21.66;74.45;98311.02;104901;1271;75442;-18
2022/08/15 06:34:29;;;;;;;18.00;12.20;;;;;;;22.22;72.38;98309.42;104995;1271;76003;-18
2022/08/15 06:37:42;;;;;;;11.20;8.70;;;;;;;22.46;71.17;98305.73;104850;1271;74871;-18
2022/08/15 06:40:47;;;;;;;13.30;8.80;;;;;;;22.40;70.88;98308.58;104873;1272;63050;-18
2022/08/15 06:43:19;;;;;;;9.50;6.60;;;;;;;22.42;70.55;98305.44;104730;1271;62927;-18
2022/08/15 06:46:05;;;;;;;7.80;6.20;;;;;;;22.38;70.78;98304.49;104661;1274;76617;-18
2022/08/15 06:48:53;;;;;;;8.70;6.30;;;;;;;22.32;70.77;98304.16;104756;1271;76587;-18
2022/08/15 06:51:32;;;;;;;9.40;6.20;;;;;;;22.89;69.31;98304.66;104817;1271;75961;-18
2022/08/15 06:54:24;;;;;;;8.60;7.40;;;;;;;23.11;68.71;98305.61;105083;1271;63070;-18
2022/08/15 06:57:46;;;;;;;10.20;9.10;;;;;;;23.10;68.46;98305.95;105031;1271;62911;-18
2022/08/15 07:00:35;;;;;;;9.40;6.90;;;;;;;22.80;69.74;98307.23;104691;1271;76646;-18
2022/08/15 07:03:38;;;;;;;8.20;6.80;;;;;;;23.07;67.48;98307.70;104976;1271;75700;-18
2022/08/15 07:06:13;;;;;;;12.00;6.30;;;;;;;23.28;67.09;98309.90;105021;1271;75693;-18
2022/08/15 07:08:45;;;;;;;6.00;4.30;;;;;;;23.45;67.15;98313.21;104746;1271;64669;-18
2022/08/15 07:11:30;;;;;;;10.80;5.50;;;;;;;23.98;65.21;98311.77;105067;1271;61966;-18
2022/08/15 07:14:07;;;;;;;6.10;5.30;;;;;;;24.35;63.63;98313.02;104913;1271;75555;-18
2022/08/15 07:17:12;;;;;;;9.40;6.00;;;;;;;24.48;63.10;98316.50;104738;1271;76997;-18
2022/08/15 07:19:43;;;;;;;9.80;5.60;;;;;;;24.45;63.69;98317.23;104588;1271;75258;-18
2022/08/15 07:22:34;;;;;;;6.40;5.80;;;;;;;24.20;63.45;98311.48;104654;1271;61844;-18
2022/08/15 07:25:13;;;;;;;14.20;9.60;;;;;;;23.93;64.82;98313.63;104637;1271;61870;-18
2022/08/15 07:27:52;;;;;;;10.70;7.00;;;;;;;23.73;65.92;98312.93;104618;1271;75504;-18
2022/08/15 07:30:26;;;;;;;7.50;6.30;;;;;;;24.01;65.64;98308.70;104382;1274;76028;-18
2022/08/15 07:32:58;;;;;;;7.40;6.50;;;;;;;24.32;64.21;98306.09;104643;1271;75395;-18
2022/08/15 07:35:34;;;;;;;10.40;6.80;;;;;;;24.77;64.12;98307.77;104709;1271;63116;-18
2022/08/15 07:38:06;;;;;;;8.70;6.50;;;;;;;25.22;62.19;98314.00;104609;1271;61612;-18
2022/08/15 07:40:52;;;;;;;8.90;6.80;;;;;;;25.21;61.36;98313.39;104655;1271;74425;-18
2022/08/15 07:43:35;;;;;;;9.80;6.00;;;;;;;25.07;61.58;98311.42;104695;1271;77097;-18
2022/08/15 07:46:18;;;;;;;14.20;7.20;;;;;;;25.10;60.73;98312.30;104786;1271;75312;-18
2022/08/15 07:49:00;;;;;;;11.30;6.70;;;;;;;24.73;61.26;98318.30;104798;1271;62886;-18
2022/08/15 07:51:38;;;;;;;8.80;6.70;;;;;;;24.78;61.80;98317.39;104638;1271;63141;-18
2022/08/15 07:54:25;;;;;;;9.30;6.20;;;;;;;24.92;60.91;98308.92;104438;1271;76577;-18
2022/08/15 07:57:33;;;;;;;14.60;6.90;;;;;;;25.01;61.04;98309.45;104593;1274;75814;-18
2022/08/15 08:00:25;;;;;;;8.50;6.00;;;;;;;24.66;61.17;98307.11;104799;1271;74488;-19
2022/08/15 08:03:28;;;;;;;11.20;6.60;;;;;;;24.65;61.63;98309.77;104749;1271;61719;-18
2022/08/15 08:06:12;;;;;;;10.60;7.30;;;;;;;24.42;62.13;98305.29;104689;1271;61904;-18
2022/08/15 08:09:23;;;;;;;9.10;6.80;;;;;;;24.72;63.07;98304.02;104700;1271;76548;-18
2022/08/15 08:11:56;;;;;;;14.70;9.60;;;;;;;24.74;61.52;98301.06;104778;1271;76947;-18
2022/08/15 08:14:26;;;;;;;8.80;7.90;;;;;;;24.57;62.56;98301.14;104677;1271;75392;-18
2022/08/15 08:17:32;;;;;;;12.00;9.40;;;;;;;24.64;62.53;98306.66;104657;1271;62474;-18
2022/08/15 08:20:29;;;;;;;34.60;22.60;;;;;;;24.47;63.57;98307.06;104641;1271;62061;-18
2022/08/15 08:23:43;;;;;;;12.00;9.40;;;;;;;24.23;64.25;98305.91;104638;1271;76531;-18
2022/08/15 08:26:42;;;;;;;14.40;10.30;;;;;;;24.42;63.84;98308.33;104906;1271;75960;-18
2022/08/15 08:29:14;;;;;;;17.10;11.90;;;;;;;24.51;63.73;98301.34;104636;1271;74095;-18
2022/08/15 08:32:04;;;;;;;31.00;20.70;;;;;;;24.74;63.40;98297.91;104651;1271;61970;-18
2022/08/15 08:35:04;;;;;;;20.80;12.00;;;;;;;24.39;64.10;98296.91;104682;1271;62811;-18
2022/08/15 08:37:41;;;;;;;14.90;9.90;;;;;;;24.46;64.16;98298.63;104886;1271;76522;-18
2022/08/15 08:43:15;;;;;;;17.10;13.80;;;;;;;24.82;63.54;98296.16;104816;1270;75374;-18
2022/08/15 08:45:51;;;;;;;11.50;9.60;;;;;;;24.97;62.43;98295.98;104813;1271;61869;-18
2022/08/15 08:48:23;;;;;;;10.30;8.20;;;;;;;24.87;62.37;98293.49;104674;1271;61990;-18
2022/08/15 08:51:14;;;;;;;10.00;7.60;;;;;;;25.26;60.99;98291.95;104746;1271;75595;-19
2022/08/15 08:53:54;;;;;;;13.10;7.50;;;;;;;25.52;60.02;98292.86;105156;1271;77018;-18
2022/08/15 08:56:36;;;;;;;8.40;7.50;;;;;;;25.92;59.88;98287.70;105141;1271;75704;-18
2022/08/15 08:59:10;;;;;;;9.70;7.80;;;;;;;26.31;58.54;98282.98;105123;1271;61229;-18
2022/08/15 09:01:38;;;;;;;10.80;7.00;;;;;;;26.32;58.42;98286.26;104680;1271;61342;-18
2022/08/15 09:04:09;;;;;;;21.50;14.30;;;;;;;26.69;57.32;98286.59;104760;1271;75292;-17
2022/08/15 09:06:41;;;;;;;13.10;9.30;;;;;;;26.13;58.35;98296.11;104671;1271;77065;-18
2022/08/15 09:09:16;;;;;;;14.50;9.40;;;;;;;26.32;58.02;98293.45;104760;1271;75783;-18
2022/08/15 09:11:54;;;;;;;22.10;15.30;;;;;;;26.75;58.05;98296.39;104782;1272;63210;-18
2022/08/15 09:14:29;;;;;;;12.20;7.90;;;;;;;26.43;57.65;98295.67;104657;1271;61921;-18
2022/08/15 09:17:03;;;;;;;10.20;8.80;;;;;;;26.55;58.64;98295.71;104726;1271;76524;-18
2022/08/15 09:20:16;;;;;;;21.40;12.30;;;;;;;27.24;56.57;98293.54;104676;1271;76965;-18
2022/08/15 09:22:48;;;;;;;15.70;9.50;;;;;;;27.24;56.36;98286.09;105160;1271;74428;-18
2022/08/15 09:25:20;;;;;;;10.70;8.50;;;;;;;27.03;57.61;98272.70;104895;1270;61976;-18
2022/08/15 09:28:10;;;;;;;12.30;7.90;;;;;;;27.56;56.48;98270.89;104618;1271;61863;-18
2022/08/15 09:31:03;;;;;;;15.30;10.50;;;;;;;27.68;55.54;98265.86;104812;1271;75534;-18
2022/08/15 09:34:05;;;;;;;11.50;8.50;;;;;;;26.80;56.74;98261.78;104854;1271;75501;-18
2022/08/15 09:36:37;;;;;;;10.90;8.00;;;;;;;28.03;55.11;98250.16;104917;1271;74790;-18
2022/08/15 09:39:21;;;;;;;7.10;6.30;;;;;;;28.35;54.61;98248.97;105139;1271;62611;-18
2022/08/15 09:42:10;;;;;;;9.70;6.50;;;;;;;27.64;55.10;98249.67;104669;1271;63373;-18
2022/08/15 09:45:32;;;;;;;15.30;10.70;;;;;;;27.49;52.89;98257.58;104874;1271;75888;-18
2022/08/15 09:48:31;;;;;;;8.80;6.10;;;;;;;27.91;52.46;98260.65;104762;1271;74703;-18
2022/08/15 09:51:19;;;;;;;8.20;5.50;;;;;;;28.23;50.73;98256.42;104798;1271;74200;-18
2022/08/15 09:54:05;;;;;;;8.90;4.90;;;;;;;28.31;49.95;98259.93;105032;1271;62144;-18
2022/08/15 09:57:23;;;;;;;15.80;7.10;;;;;;;28.45;50.05;98247.25;105168;1271;63085;-18
2022/08/15 10:00:15;;;;;;;15.10;11.30;;;;;;;28.15;49.53;98244.70;105165;1271;75503;-18
2022/08/15 10:02:49;;;;;;;10.60;6.30;;;;;;;27.88;49.95;98239.52;105021;1271;76000;-18
2022/08/15 10:05:22;;;;;;;7.80;5.80;;;;;;;27.79;50.20;98243.47;104639;1271;75351;-19
2022/08/15 10:07:51;;;;;;;6.30;5.30;;;;;;;28.00;49.97;98238.46;104782;1272;62993;-18
2022/08/15 10:10:20;;;;;;;8.50;5.90;;;;;;;27.98;49.29;98243.70;104888;1271;61468;-18
2022/08/15 10:13:07;;;;;;;7.10;5.50;;;;;;;28.11;49.68;98242.92;104598;1271;76566;-18
2022/08/15 10:15:41;;;;;;;7.00;5.80;;;;;;;28.20;50.18;98238.73;104784;1271;76949;-18
2022/08/15 10:18:09;;;;;;;;;;;;;;;28.08;50.53;98231.56;104686;1272;73982;-18
2022/08/15 10:20:40;;;;;;;9.90;6.20;;;;;;;27.76;50.96;98237.35;105100;1271;63075;-18
2022/08/15 10:23:13;;;;;;;7.20;5.90;;;;;;;27.77;50.92;98238.54;104882;1271;61989;-18
2022/08/15 10:25:44;;;;;;;10.10;6.10;;;;;;;27.77;50.79;98232.55;104719;1272;75524;-18
2022/08/15 10:28:13;;;;;;;13.50;6.20;;;;;;;27.80;50.78;98237.00;104795;1271;77393;-18
2022/08/15 10:31:05;;;;;;;7.70;5.50;;;;;;;27.84;51.74;98239.70;105110;1270;74400;-18
2022/08/15 10:33:34;;;;;;;7.20;5.70;;;;;;;27.92;50.91;98242.21;105114;1271;62032;-18
2022/08/15 10:36:25;;;;;;;6.20;5.60;;;;;;;28.11;51.24;98235.22;105018;1272;63111;-17
2022/08/15 10:39:16;;;;;;;7.80;5.80;;;;;;;28.27;51.50;98228.02;104637;1271;76725;-18
2022/08/15 10:42:04;;;;;;;8.10;6.70;;;;;;;28.51;51.42;98232.11;104801;1271;76264;-18
2022/08/15 10:45:11;;;;;;;6.90;6.10;;;;;;;28.44;51.27;98228.98;104654;1271;74332;-18
2022/08/15 10:47:47;;;;;;;9.10;5.60;;;;;;;29.13;50.40;98232.04;104756;1271;62954;-18
2022/08/15 10:50:27;;;;;;;10.20;5.40;;;;;;;29.11;48.25;98231.83;104775;1271;62637;-18
2022/08/15 10:53:40;;;;;;;8.90;5.20;;;;;;;29.21;48.23;98229.46;104749;1271;76502;-18
2022/08/15 10:56:25;;;;;;;7.30;5.40;;;;;;;29.21;48.16;98225.46;104643;1271;76395;-18
2022/08/15 10:59:16;;;;;;;7.30;5.00;;;;;;;29.03;47.90;98218.54;104784;1271;75440;-18
2022/08/15 11:01:45;;;;;;;8.40;4.70;;;;;;;28.85;47.37;98217.00;104665;1269;62944;-18
2022/08/15 11:04:25;;;;;;;6.90;4.80;;;;;;;28.84;46.97;98218.35;104789;1271;60977;-18
2022/08/15 11:07:28;;;;;;;9.00;5.40;;;;;;;28.62;47.39;98217.16;104934;1271;76560;-19
2022/08/15 11:10:14;;;;;;;5.50;4.70;;;;;;;28.31;48.62;98214.98;105134;1270;77016;-18
2022/08/15 11:12:52;;;;;;;12.10;5.70;;;;;;;27.98;49.94;98224.96;104975;1271;74005;-18
2022/08/15 11:15:22;;;;;;;8.80;5.20;;;;;;;27.65;50.25;98221.48;104807;1271;61825;-18
2022/08/15 11:18:04;;;;;;;6.00;5.00;;;;;;;27.39;51.12;98223.50;104743;1271;61821;-18
2022/08/15 11:20:52;;;;;;;9.30;4.80;;;;;;;27.20;51.94;98225.32;105142;1271;75442;-18
2022/08/15 11:23:36;;;;;;;8.10;5.30;;;;;;;27.26;52.38;98223.71;104734;1271;75153;-18
2022/08/15 11:26:04;;;;;;;9.80;6.30;;;;;;;27.22;52.21;98223.73;104619;1271;74165;-18
2022/08/15 11:29:33;;;;;;;6.90;5.30;;;;;;;27.23;51.70;98223.59;104679;1271;62061;-18
2022/08/15 11:32:24;;;;;;;7.60;5.40;;;;;;;27.07;51.89;98216.16;104759;1271;62916;-18
2022/08/15 11:34:53;;;;;;;6.90;5.60;;;;;;;27.19;51.95;98220.71;104675;1271;75935;-18
2022/08/15 11:37:45;;;;;;;5.60;5.00;;;;;;;27.55;51.33;98219.89;104997;1271;75864;-18
2022/08/15 11:40:35;;;;;;;6.80;5.40;;;;;;;27.33;51.38;98216.77;104861;1271;74595;-18
2022/08/15 11:43:05;;;;;;;9.30;5.60;;;;;;;27.01;52.55;98221.90;104802;1271;61379;-18
2022/08/15 11:45:41;;;;;;;7.20;5.30;;;;;;;26.70;53.31;98220.02;104741;1271;61621;-18
2022/08/15 11:48:26;;;;;;;7.90;5.40;;;;;;;26.66;53.48;98214.52;104765;1271;75880;-18
2022/08/15 11:51:09;;;;;;;8.70;4.70;;;;;;;26.60;53.44;98217.77;104821;1271;76463;-18
2022/08/15 11:53:45;;;;;;;7.40;6.60;;;;;;;26.32;55.02;98216.39;104731;1271;74135;-18
2022/08/15 11:56:28;;;;;;;12.60;8.70;;;;;;;26.05;55.89;98215.13;104705;1271;62435;-18
2022/08/15 11:59:18;;;;;;;10.60;8.00;;;;;;;26.11;56.20;98214.36;104758;1271;63179;-18
2022/08/15 12:02:01;;;;;;;9.60;6.00;;;;;;;26.23;56.41;98215.95;104837;1271;74935;-18
2022/08/15 12:04:33;;;;;;;10.70;8.00;;;;;;;26.22;56.69;98216.38;104712;1272;76179;-18
2022/08/15 12:07:27;;;;;;;10.10;7.50;;;;;;;26.26;56.54;98219.26;104730;1271;75498;-17
2022/08/15 12:09:56;;;;;;;8.60;5.90;;;;;;;26.24;56.78;98219.98;104678;1271;63031;-18
2022/08/15 12:12:38;;;;;;;14.50;8.00;;;;;;;26.30;57.68;98225.56;104878;1271;61482;-18
2022/08/15 12:15:31;;;;;;;8.00;7.00;;;;;;;26.00;59.17;98219.55;104649;1272;76561;-18
2022/08/15 12:18:27;;;;;;;9.90;5.40;;;;;;;25.48;58.98;98209.46;104691;1272;76939;-18
2022/08/15 12:21:16;;;;;;;6.70;5.90;;;;;;;25.55;58.82;98212.20;104858;1271;75467;-18
2022/08/15 12:23:48;;;;;;;12.30;6.60;;;;;;;25.65;58.79;98206.48;104807;1272;62105;-17
2022/08/15 12:26:20;;;;;;;8.00;6.70;;;;;;;25.69;59.33;98207.66;104728;1272;61687;-18